Time;durP1;ratioP1;P1;durP2;ratioP2;P2;SDS_P1;SDS_P2;PMS_P1;PMS_P2;Temp;Humidity;BMP_temperature;BMP_pressure;BME280_temperature;BME280_humidity;BME280_pressure;Samples;Min_cycle;Max_cycle;Signal;HPM_P1;HPM_P2
2022/11/20 00:01:33;;;;;;;19.83;14.97;;;-1.90;99.90;-2.90;99896;;;;570000;248;24122;-82
2022/11/20 00:04:01;;;;;;;22.00;16.10;;;-1.90;99.90;-2.90;99888;;;;567419;248;24102;-82
2022/11/20 00:06:29;;;;;;;21.00;14.10;;;-1.90;99.90;-2.90;99903;;;;570414;248;25164;-82
2022/11/20 00:08:59;;;;;;;29.77;20.00;;;-1.90;99.90;-2.80;99901;;;;570384;248;24076;-82
2022/11/20 00:11:27;;;;;;;19.50;14.50;;;-1.90;99.90;-2.80;99905;;;;578758;248;24177;-81
2022/11/20 00:13:52;;;;;;;28.73;19.27;;;-1.90;99.90;-2.80;99898;;;;569823;248;24095;-83
2022/11/20 00:16:20;;;;;;;28.37;19.03;;;-1.90;99.90;-2.80;99885;;;;579049;245;25187;-83
2022/11/20 00:18:51;;;;;;;30.13;20.37;;;-1.80;99.90;-2.80;99898;;;;578910;245;24110;-81
2022/11/20 00:21:19;;;;;;;20.07;13.63;;;-1.90;99.90;-2.80;99892;;;;570082;248;25190;-81
2022/11/20 00:23:47;;;;;;;16.40;11.33;;;-1.80;99.90;-2.70;99892;;;;569759;248;24091;-81
2022/11/20 00:26:15;;;;;;;29.87;19.27;;;-1.70;99.90;-2.70;99890;;;;570075;248;24094;-82
2022/11/20 00:28:44;;;;;;;25.77;15.33;;;-1.80;99.90;-2.70;99886;;;;569922;248;24116;-82
2022/11/20 00:31:11;;;;;;;23.80;16.20;;;-1.70;99.90;-2.70;99904;;;;578363;245;24097;-82
2022/11/20 00:33:42;;;;;;;27.83;20.20;;;-1.70;99.90;-2.70;99895;;;;570591;247;24077;-82
2022/11/20 00:36:07;;;;;;;25.40;16.57;;;-1.70;99.90;-2.70;99888;;;;579384;247;24118;-82
2022/11/20 00:38:35;;;;;;;20.03;14.33;;;-1.70;99.90;-2.70;99889;;;;571242;247;24081;-83
2022/11/20 00:41:04;;;;;;;26.60;18.13;;;-1.70;99.90;-2.70;99893;;;;571171;247;24081;-82
2022/11/20 00:43:32;;;;;;;27.90;17.23;;;-1.70;99.90;-2.70;99894;;;;570842;247;24102;-81
2022/11/20 00:46:08;;;;;;;24.30;16.97;;;-1.70;99.90;-2.70;99902;;;;579541;247;25236;-82
2022/11/20 00:48:36;;;;;;;28.23;18.57;;;-1.70;99.90;-2.70;99898;;;;579464;247;24131;-82
2022/11/20 00:51:04;;;;;;;29.03;20.17;;;-1.70;99.90;-2.60;99902;;;;567773;247;24090;-82
2022/11/20 00:53:32;;;;;;;25.53;17.53;;;-1.70;99.90;-2.60;99896;;;;567629;247;24086;-81
2022/11/20 00:56:00;;;;;;;23.20;15.17;;;-1.70;99.90;-2.70;99894;;;;567632;247;24090;-82
2022/11/20 00:58:34;;;;;;;17.37;11.70;;;-1.70;99.90;-2.70;99902;;;;570451;247;24085;-83
2022/11/20 01:01:03;;;;;;;14.63;11.27;;;-1.70;99.90;-2.70;99900;;;;579262;247;24103;-82
2022/11/20 01:03:36;;;;;;;20.10;14.07;;;-1.70;99.90;-2.60;99891;;;;570418;247;24131;-83
2022/11/20 01:06:04;;;;;;;20.83;14.57;;;-1.70;99.90;-2.70;99904;;;;570537;247;24082;-83
2022/11/20 01:08:36;;;;;;;19.47;12.57;;;-1.70;99.90;-2.70;99906;;;;579256;247;24164;-82
2022/11/20 01:11:03;;;;;;;15.13;11.37;;;-1.70;99.90;-2.70;99901;;;;569935;248;24132;-83
2022/11/20 01:13:38;;;;;;;27.37;19.20;;;-1.70;99.90;-2.70;99885;;;;569356;248;24095;-82
2022/11/20 01:16:21;;;;;;;22.83;14.93;;;-1.80;99.90;-2.70;99888;;;;569925;248;24160;-83
2022/11/20 01:18:49;;;;;;;23.07;15.47;;;-1.70;99.90;-2.70;99895;;;;569712;248;24090;-83
2022/11/20 01:21:23;;;;;;;31.50;18.10;;;-1.70;99.90;-2.70;99896;;;;570344;251;24183;-83
2022/11/20 01:23:51;;;;;;;17.50;13.53;;;-1.80;99.90;-2.70;99890;;;;561198;251;24190;-82
2022/11/20 01:26:19;;;;;;;16.80;12.27;;;-1.80;99.90;-2.70;99893;;;;578005;248;24139;-83
2022/11/20 01:28:47;;;;;;;20.33;13.83;;;-1.80;99.90;-2.70;99888;;;;572153;246;24120;-84
2022/11/20 01:31:17;;;;;;;19.07;13.70;;;-1.70;99.90;-2.70;99893;;;;565540;250;24103;-82
2022/11/20 01:33:48;;;;;;;22.00;15.80;;;-1.70;99.90;-2.70;99900;;;;572114;246;24261;-84
2022/11/20 01:36:13;;;;;;;22.80;16.03;;;-1.70;99.90;-2.70;99896;;;;561723;251;24200;-83
2022/11/20 01:38:41;;;;;;;21.27;15.40;;;-1.70;99.90;-2.70;99896;;;;574393;250;25132;-84
2022/11/20 01:41:13;;;;;;;18.60;13.20;;;-1.70;99.90;-2.70;99894;;;;574530;247;24194;-84
2022/11/20 01:43:37;;;;;;;20.87;14.77;;;-1.70;99.90;-2.70;99903;;;;570552;246;24080;-83
2022/11/20 01:46:18;;;;;;;25.00;16.30;;;-1.70;99.90;-2.70;99901;;;;568650;250;24120;-84
2022/11/20 01:48:57;;;;;;;16.17;11.43;;;-1.70;99.90;-2.70;99900;;;;575752;246;24180;-83
2022/11/20 01:51:31;;;;;;;16.73;11.37;;;-1.70;99.90;-2.70;99900;;;;573022;246;24161;-83
2022/11/20 01:53:58;;;;;;;25.00;18.03;;;-1.70;99.90;-2.70;99898;;;;570218;249;24129;-83
2022/11/20 01:56:26;;;;;;;15.27;10.53;;;-1.70;99.90;-2.70;99902;;;;566320;249;24102;-83
2022/11/20 01:58:54;;;;;;;25.73;18.07;;;-1.70;99.90;-2.70;99894;;;;566482;249;24137;-83
2022/11/20 02:01:25;;;;;;;18.43;13.40;;;-1.70;99.90;-2.70;99897;;;;566314;249;24099;-83
2022/11/20 02:03:50;;;;;;;18.13;13.53;;;-1.70;99.90;-2.70;99903;;;;562859;249;24093;-82
2022/11/20 02:06:21;;;;;;;15.13;10.07;;;-1.70;99.90;-2.70;99896;;;;574928;249;24096;-84
2022/11/20 02:08:49;;;;;;;24.93;16.13;;;-1.70;99.90;-2.70;99898;;;;581890;244;24086;-83
2022/11/20 02:11:17;;;;;;;24.10;17.60;;;-1.70;99.90;-2.70;99887;;;;567847;251;24137;-83
2022/11/20 02:13:44;;;;;;;24.43;16.53;;;-1.70;99.90;-2.70;99893;;;;561821;251;25261;-83
2022/11/20 02:16:22;;;;;;;23.70;17.63;;;-1.70;99.90;-2.70;99891;;;;562132;251;24109;-84
2022/11/20 02:18:49;;;;;;;16.50;11.63;;;-1.80;99.90;-2.70;99888;;;;561689;251;24097;-83
2022/11/20 02:21:36;;;;;;;16.03;11.50;;;-1.80;99.90;-2.70;99893;;;;582566;246;24098;-83
2022/11/20 02:24:09;;;;;;;16.73;11.40;;;-1.80;99.90;-2.70;99882;;;;560373;252;24144;-81
2022/11/20 02:26:43;;;;;;;25.73;17.43;;;-1.80;99.90;-2.70;99890;;;;570228;246;24137;-82
2022/11/20 02:29:11;;;;;;;24.73;16.77;;;-1.80;99.90;-2.70;99876;;;;571695;246;24116;-83
2022/11/20 02:31:39;;;;;;;13.87;10.13;;;-1.80;99.90;-2.70;99889;;;;574053;248;24091;-82
2022/11/20 02:34:07;;;;;;;18.17;12.77;;;-1.80;99.90;-2.70;99886;;;;565582;250;24099;-82
2022/11/20 02:36:35;;;;;;;16.27;11.73;;;-1.80;99.90;-2.70;99885;;;;565618;248;24080;-81
2022/11/20 02:39:03;;;;;;;20.70;14.60;;;-1.80;99.90;-2.70;99870;;;;565684;250;24130;-83
2022/11/20 02:41:37;;;;;;;19.60;13.63;;;-1.80;99.90;-2.70;99885;;;;572440;246;24091;-82
2022/11/20 02:44:08;;;;;;;15.17;9.50;;;-1.70;99.90;-2.70;99883;;;;572423;246;24090;-82
2022/11/20 02:46:36;;;;;;;21.07;13.73;;;-1.80;99.90;-2.70;99890;;;;570395;247;24170;-82
2022/11/20 02:49:05;;;;;;;22.03;15.83;;;-1.80;99.90;-2.70;99888;;;;574160;250;24126;-82
2022/11/20 02:51:34;;;;;;;20.53;14.67;;;-1.80;99.90;-2.80;99892;;;;565622;250;24128;-83
2022/11/20 02:54:02;;;;;;;23.27;16.53;;;-1.80;99.90;-2.80;99892;;;;574183;244;25129;-82
2022/11/20 02:56:26;;;;;;;18.00;11.87;;;-1.80;99.90;-2.80;99887;;;;566145;249;25176;-82
2022/11/20 02:58:55;;;;;;;17.97;13.23;;;-1.90;99.90;-2.80;99895;;;;570766;249;24076;-83
2022/11/20 03:01:25;;;;;;;21.50;15.37;;;-1.90;99.90;-2.80;99884;;;;566886;249;24107;-83
2022/11/20 03:03:54;;;;;;;19.90;15.50;;;-1.90;99.90;-2.90;99867;;;;566388;249;24103;-83
2022/11/20 03:06:18;;;;;;;23.10;15.53;;;-1.90;99.90;-2.90;99871;;;;566315;249;24101;-83
2022/11/20 03:08:46;;;;;;;27.40;16.67;;;-1.90;99.90;-2.90;99873;;;;566555;249;24089;-81
2022/11/20 03:11:14;;;;;;;21.20;14.47;;;-1.90;99.90;-2.90;99867;;;;566488;249;24110;-82
2022/11/20 03:13:42;;;;;;;15.80;10.83;;;-2.00;99.90;-2.90;99873;;;;566251;249;24093;-83
2022/11/20 03:16:13;;;;;;;22.73;14.93;;;-2.00;99.90;-2.90;99867;;;;565826;249;24095;-82
2022/11/20 03:18:41;;;;;;;12.20;8.63;;;-1.90;99.90;-2.90;99864;;;;565721;249;24089;-83
2022/11/20 03:21:11;;;;;;;15.37;11.00;;;-1.90;99.90;-2.90;99861;;;;565752;249;24066;-82
2022/11/20 03:23:37;;;;;;;16.43;10.93;;;-1.90;99.90;-2.90;99862;;;;565382;249;24099;-82
2022/11/20 03:26:15;;;;;;;23.70;16.20;;;-1.90;99.90;-2.90;99853;;;;574436;247;24096;-82
2022/11/20 03:28:43;;;;;;;19.20;13.23;;;-1.90;99.90;-2.80;99868;;;;565809;249;24104;-82
2022/11/20 03:31:11;;;;;;;17.83;12.60;;;-1.90;99.90;-2.80;99856;;;;565430;249;24116;-82
2022/11/20 03:33:39;;;;;;;23.30;16.57;;;-1.90;99.90;-2.80;99855;;;;565635;250;24078;-82
2022/11/20 03:36:07;;;;;;;24.33;12.10;;;-1.90;99.90;-2.90;99851;;;;574322;243;24107;-82
2022/11/20 03:38:38;;;;;;;19.43;13.90;;;-1.90;99.90;-2.90;99848;;;;572106;246;24124;-82
2022/11/20 03:41:03;;;;;;;27.70;17.60;;;-1.90;99.90;-2.80;99853;;;;572073;246;24096;-82
2022/11/20 03:43:31;;;;;;;15.70;11.57;;;-1.90;99.90;-2.80;99846;;;;573991;246;24088;-82
2022/11/20 03:46:02;;;;;;;15.80;9.93;;;-1.90;99.90;-2.80;99854;;;;560889;252;24175;-82
2022/11/20 03:48:26;;;;;;;15.27;10.63;;;-1.90;99.90;-2.80;99847;;;;568194;248;25124;-82
2022/11/20 03:50:54;;;;;;;20.07;13.80;;;-1.80;99.90;-2.80;99847;;;;562343;251;24137;-82
2022/11/20 03:53:22;;;;;;;19.03;13.40;;;-1.80;99.90;-2.80;99846;;;;570901;246;24210;-83
2022/11/20 03:55:53;;;;;;;11.93;8.53;;;-1.80;99.90;-2.80;99843;;;;560837;252;24120;-82
2022/11/20 03:58:21;;;;;;;17.67;12.17;;;-1.80;99.90;-2.80;99838;;;;570278;248;24137;-82
2022/11/20 04:00:50;;;;;;;24.27;18.30;;;-1.80;99.90;-2.80;99835;;;;562456;248;35354;-83
2022/11/20 04:03:18;;;;;;;14.63;10.70;;;-1.80;99.90;-2.80;99843;;;;567367;248;24084;-83
2022/11/20 04:05:46;;;;;;;18.43;11.70;;;-1.80;99.90;-2.80;99848;;;;567356;248;24082;-82
2022/11/20 04:08:14;;;;;;;19.83;13.77;;;-1.80;99.90;-2.80;99840;;;;568034;247;24092;-83
2022/11/20 04:10:43;;;;;;;21.17;14.17;;;-1.80;99.90;-2.80;99846;;;;568551;247;24092;-83
2022/11/20 04:13:11;;;;;;;21.33;13.93;;;-1.80;99.90;-2.90;99841;;;;568112;247;24114;-83
2022/11/20 04:15:39;;;;;;;20.70;13.50;;;-1.90;99.90;-2.90;99835;;;;567724;247;24111;-83
2022/11/20 04:18:07;;;;;;;20.53;14.00;;;-1.90;99.90;-3.00;99835;;;;567734;247;24093;-83
2022/11/20 04:20:38;;;;;;;16.73;11.67;;;-2.00;99.90;-3.00;99841;;;;567568;247;24129;-83
2022/11/20 04:23:03;;;;;;;12.10;8.67;;;-2.00;99.90;-3.10;99832;;;;579074;247;24092;-82
2022/11/20 04:28:01;;;;;;;16.70;11.47;;;-2.40;99.90;-3.40;99830;;;;578152;248;24139;-81
2022/11/20 04:30:31;;;;;;;15.47;10.43;;;-2.50;99.90;-3.50;99832;;;;570919;248;24093;-81
2022/11/20 04:32:59;;;;;;;21.17;14.60;;;-2.50;99.90;-3.60;99830;;;;570681;248;25140;-81
2022/11/20 04:35:27;;;;;;;24.80;16.63;;;-2.60;99.90;-3.70;99826;;;;579438;246;24085;-81
2022/11/20 04:37:55;;;;;;;21.33;15.17;;;-2.80;99.90;-3.90;99826;;;;570697;248;24086;-81
2022/11/20 04:40:23;;;;;;;22.03;15.87;;;-2.90;99.90;-4.00;99828;;;;579604;248;24092;-81
2022/11/20 04:42:51;;;;;;;23.00;18.40;;;-3.00;99.90;-4.10;99830;;;;579741;248;24106;-80
2022/11/20 04:45:18;;;;;;;25.50;19.83;;;-3.10;99.90;-4.20;99831;;;;570831;248;24117;-81
2022/11/20 04:47:46;;;;;;;26.57;19.90;;;-3.20;99.90;-4.20;99829;;;;579649;248;24096;-81
2022/11/20 04:50:14;;;;;;;27.17;19.57;;;-3.30;99.90;-4.30;99830;;;;579562;248;24087;-82
2022/11/20 04:52:42;;;;;;;25.13;16.93;;;-3.40;99.90;-4.40;99823;;;;570955;248;24100;-82
2022/11/20 04:55:10;;;;;;;25.00;17.40;;;-3.40;99.90;-4.50;99808;;;;579706;248;24084;-80
2022/11/20 04:57:39;;;;;;;23.53;16.80;;;-3.60;99.90;-4.60;99807;;;;579653;248;24075;-81
2022/11/20 05:00:08;;;;;;;22.17;16.10;;;-3.70;99.90;-4.60;99800;;;;571008;248;24089;-81
2022/11/20 05:02:36;;;;;;;25.23;17.10;;;-3.70;99.90;-4.80;99801;;;;572650;248;24076;-81
2022/11/20 05:05:04;;;;;;;23.12;15.82;;;-3.80;99.90;-4.90;99804;;;;556582;253;35573;-81
2022/11/20 05:07:31;;;;;;;23.45;17.23;;;-3.90;99.90;-5.00;99800;;;;566376;248;35278;-79
2022/11/20 05:09:59;;;;;;;22.43;13.93;;;-3.90;99.90;-5.00;99798;;;;571247;248;24082;-79
2022/11/20 05:12:29;;;;;;;23.00;16.13;;;-4.00;99.90;-5.10;99802;;;;571378;246;25132;-83
2022/11/20 05:14:57;;;;;;;19.27;15.13;;;-4.00;99.90;-5.10;99790;;;;576251;246;24115;-81
2022/11/20 05:17:25;;;;;;;21.77;16.17;;;-4.10;99.90;-5.20;99800;;;;576158;246;24076;-81
2022/11/20 05:19:53;;;;;;;23.23;15.37;;;-4.10;99.90;-5.20;99791;;;;576922;245;24068;-81
2022/11/20 05:22:20;;;;;;;23.63;15.83;;;-4.20;99.90;-5.20;99792;;;;577309;246;24164;-81
2022/11/20 05:24:48;;;;;;;22.40;14.43;;;-4.20;99.90;-5.30;99789;;;;576973;246;24048;-81
2022/11/20 05:27:20;;;;;;;22.60;14.80;;;-4.20;99.90;-5.30;99787;;;;576995;246;24094;-81
2022/11/20 05:29:44;;;;;;;22.60;14.60;;;-4.30;99.90;-5.40;99786;;;;576516;246;24073;-81
2022/11/20 05:32:12;;;;;;;21.87;15.43;;;-4.30;99.90;-5.40;99789;;;;571659;246;35233;-81
2022/11/20 05:34:41;;;;;;;17.60;11.07;;;-4.40;99.90;-5.50;99787;;;;576396;246;24165;-81
2022/11/20 05:37:09;;;;;;;20.70;14.10;;;-4.40;99.90;-5.50;99781;;;;576218;246;24113;-81
2022/11/20 05:39:38;;;;;;;22.27;16.30;;;-4.50;99.90;-5.60;99776;;;;576171;246;24121;-80
2022/11/20 05:44:52;;;;;;;21.47;14.47;;;-4.50;99.90;-5.70;99767;;;;576370;246;24091;-81
2022/11/20 05:47:20;;;;;;;22.07;14.67;;;-4.60;99.90;-5.80;99770;;;;576499;246;24059;-80
2022/11/20 05:49:48;;;;;;;21.97;13.90;;;-4.70;99.90;-5.90;99776;;;;576525;246;24114;-81
2022/11/20 05:52:16;;;;;;;21.87;14.20;;;-4.80;99.90;-6.00;99774;;;;576509;246;24067;-81
2022/11/20 05:54:44;;;;;;;21.47;14.80;;;-4.90;99.90;-6.10;99765;;;;576520;246;24142;-81
2022/11/20 05:57:12;;;;;;;21.77;14.83;;;-5.00;99.90;-6.10;99761;;;;576300;246;24072;-80
2022/11/20 05:59:41;;;;;;;25.53;15.57;;;-5.00;99.90;-6.10;99759;;;;576283;246;24149;-82
2022/11/20 06:02:10;;;;;;;20.53;13.53;;;-5.00;99.90;-6.00;99772;;;;576367;246;24072;-81
2022/11/20 06:04:39;;;;;;;23.57;13.70;;;-4.90;99.90;-6.00;99760;;;;576293;246;25182;-81
2022/11/20 06:07:07;;;;;;;21.50;14.27;;;-4.90;99.90;-6.00;99764;;;;576382;246;24154;-80
2022/11/20 06:09:34;;;;;;;21.60;14.77;;;-4.90;99.90;-5.90;99755;;;;573111;246;24077;-81
2022/11/20 06:12:02;;;;;;;21.80;14.43;;;-4.80;99.90;-5.80;99761;;;;576465;246;24061;-83
2022/11/20 06:14:30;;;;;;;20.37;14.60;;;-4.80;99.90;-5.70;99769;;;;576084;246;24175;-84
2022/11/20 06:17:01;;;;;;;22.87;13.77;;;-4.60;99.90;-5.60;99757;;;;575931;246;24100;-81
2022/11/20 06:19:30;;;;;;;22.10;14.37;;;-4.50;99.90;-5.60;99765;;;;575892;246;24110;-81
2022/11/20 06:21:54;;;;;;;21.63;14.27;;;-4.50;99.90;-5.40;99760;;;;575755;246;24078;-81
2022/11/20 06:24:22;;;;;;;20.63;14.07;;;-4.30;99.90;-5.30;99759;;;;575782;246;24125;-81
2022/11/20 06:26:50;;;;;;;24.23;15.07;;;-4.20;99.90;-5.20;99761;;;;575940;246;24083;-81
2022/11/20 06:29:18;;;;;;;21.40;13.47;;;-4.10;99.90;-5.10;99758;;;;575884;246;25161;-81
2022/11/20 06:31:46;;;;;;;20.67;13.77;;;-4.00;99.90;-5.00;99759;;;;576899;245;24066;-80
2022/11/20 06:34:14;;;;;;;21.67;15.27;;;-3.90;99.90;-4.80;99754;;;;577169;246;24086;-80
2022/11/20 06:36:42;;;;;;;21.67;13.90;;;-3.80;99.90;-4.80;99763;;;;576773;246;24074;-80
2022/11/20 06:39:09;;;;;;;20.07;13.63;;;-3.70;99.90;-4.70;99762;;;;576863;246;24097;-81
2022/11/20 06:41:37;;;;;;;21.80;14.17;;;-3.60;99.90;-4.60;99766;;;;576297;246;24092;-80
2022/11/20 06:44:08;;;;;;;23.73;15.03;;;-3.50;99.90;-4.40;99771;;;;576437;246;24109;-79
2022/11/20 06:46:36;;;;;;;22.07;14.87;;;-3.40;99.90;-4.30;99770;;;;585438;245;24106;-79
2022/11/20 06:49:01;;;;;;;25.23;15.33;;;-3.20;99.90;-4.20;99764;;;;576573;246;24086;-80
2022/11/20 06:51:29;;;;;;;22.43;14.07;;;-3.10;99.90;-4.10;99780;;;;576664;246;24112;-80
2022/11/20 06:53:57;;;;;;;21.33;13.30;;;-3.00;99.90;-4.00;99780;;;;576813;246;24069;-79
2022/11/20 06:56:25;;;;;;;23.33;14.07;;;-3.00;99.90;-3.90;99784;;;;576832;246;24056;-79
2022/11/20 06:58:53;;;;;;;28.40;17.62;;;-2.90;99.90;-3.80;99779;;;;571511;246;35203;-79
2022/11/20 07:01:21;;;;;;;17.53;10.40;;;-2.70;99.90;-3.70;99777;;;;576510;246;24071;-80
2022/11/20 07:03:49;;;;;;;20.57;12.50;;;-2.60;99.90;-3.70;99776;;;;576344;246;24094;-79
2022/11/20 07:06:17;;;;;;;15.87;9.27;;;-2.60;99.90;-3.60;99773;;;;576363;246;24057;-79
2022/11/20 07:08:47;;;;;;;14.13;8.17;;;-2.50;99.90;-3.50;99780;;;;576238;246;24074;-81
2022/11/20 07:11:12;;;;;;;16.70;10.17;;;-2.40;99.90;-3.40;99778;;;;571048;246;24080;-79
2022/11/20 07:13:40;;;;;;;15.40;9.07;;;-2.30;99.90;-3.30;99776;;;;575978;246;24109;-78
2022/11/20 07:16:11;;;;;;;19.80;10.57;;;-2.20;99.90;-3.20;99783;;;;575713;246;24139;-79
2022/11/20 07:18:40;;;;;;;17.63;9.20;;;-2.10;99.90;-3.20;99775;;;;575856;246;24145;-79
2022/11/20 07:21:08;;;;;;;17.90;10.17;;;-2.10;99.90;-3.10;99779;;;;570621;246;25120;-79
2022/11/20 07:23:39;;;;;;;16.13;9.53;;;-2.00;99.90;-3.00;99782;;;;576140;246;24062;-79
2022/11/20 07:26:07;;;;;;;18.33;10.43;;;-2.00;99.90;-3.00;99785;;;;573233;246;24079;-79
2022/11/20 07:28:35;;;;;;;18.13;9.90;;;-1.90;99.90;-2.90;99786;;;;573801;246;24054;-79
2022/11/20 07:31:02;;;;;;;16.20;10.27;;;-1.90;99.90;-2.80;99780;;;;573636;246;24072;-79
2022/11/20 07:33:32;;;;;;;16.30;10.30;;;-1.80;99.90;-2.80;99782;;;;573924;246;24091;-80
2022/11/20 07:36:02;;;;;;;18.80;11.30;;;-1.70;99.90;-2.70;99779;;;;575902;246;26317;-80
2022/11/20 07:38:28;;;;;;;15.93;10.13;;;-1.60;99.90;-2.60;99775;;;;584253;246;24084;-79
2022/11/20 07:40:57;;;;;;;13.27;8.37;;;-1.60;99.90;-2.60;99770;;;;575860;246;24139;-80
2022/11/20 07:43:27;;;;;;;10.83;7.40;;;-1.50;99.90;-2.50;99773;;;;576728;245;24098;-80
2022/11/20 07:45:54;;;;;;;20.90;10.53;;;-1.40;99.90;-2.40;99776;;;;574681;246;24060;-80
2022/11/20 07:48:19;;;;;;;13.00;8.17;;;-1.40;99.90;-2.30;99775;;;;576910;246;24088;-81
2022/11/20 07:50:47;;;;;;;11.07;7.37;;;-1.30;99.90;-2.30;99773;;;;577323;246;24123;-80
2022/11/20 07:53:20;;;;;;;13.03;8.43;;;-1.20;99.90;-2.20;99773;;;;576791;246;24070;-80
2022/11/20 07:55:43;;;;;;;12.50;7.43;;;-1.10;99.90;-2.10;99772;;;;577334;246;24060;-78
2022/11/20 07:58:12;;;;;;;15.03;8.33;;;-1.00;99.90;-2.00;99773;;;;577783;246;24195;-80
2022/11/20 08:00:42;;;;;;;14.17;7.43;;;-1.00;99.90;-1.90;99769;;;;577802;246;24094;-80
2022/11/20 08:03:07;;;;;;;13.57;8.37;;;-0.90;99.90;-1.90;99769;;;;577541;246;24068;-80
2022/11/20 08:05:35;;;;;;;14.40;8.63;;;-0.90;99.90;-1.80;99771;;;;577631;244;24046;-80
2022/11/20 08:08:06;;;;;;;17.80;9.03;;;-0.80;99.90;-1.80;99769;;;;577604;246;24098;-80
2022/11/20 08:10:32;;;;;;;16.90;9.47;;;-0.80;99.90;-1.70;99766;;;;575326;246;24092;-78
2022/11/20 08:15:50;;;;;;;14.17;9.00;;;-0.60;99.90;-1.50;99769;;;;577349;246;24064;-79
2022/11/20 08:18:17;;;;;;;18.03;9.43;;;-0.50;99.90;-1.40;99780;;;;574798;246;24068;-81
2022/11/20 08:20:48;;;;;;;11.40;7.97;;;-0.40;99.90;-1.30;99765;;;;574663;246;24181;-81
2022/11/20 08:23:13;;;;;;;16.73;8.67;;;-0.30;99.90;-1.30;99773;;;;576708;246;24116;-80
2022/11/20 08:25:40;;;;;;;15.57;8.37;;;-0.30;99.90;-1.20;99771;;;;577271;246;24136;-81
2022/11/20 08:28:12;;;;;;;16.87;10.20;;;-0.10;99.90;-1.20;99763;;;;577181;246;24151;-81
2022/11/20 08:30:37;;;;;;;15.90;8.97;;;-0.20;99.90;-1.20;99775;;;;575006;246;24082;-80
2022/11/20 08:33:08;;;;;;;12.93;8.20;;;-0.10;99.90;-1.10;99772;;;;577315;246;24089;-80
2022/11/20 08:35:43;;;;;;;13.07;8.20;;;-0.10;99.90;-1.10;99763;;;;575232;246;24021;-79
2022/11/20 08:38:08;;;;;;;12.97;8.23;;;-0.10;99.90;-1.10;99760;;;;577181;246;24120;-80
2022/11/20 08:40:39;;;;;;;12.13;7.67;;;-0.10;99.90;-1.10;99769;;;;577292;246;24039;-80
2022/11/20 08:43:05;;;;;;;13.93;9.37;;;-0.10;99.90;-1.30;99768;;;;577204;246;24029;-81
2022/11/20 08:45:33;;;;;;;18.23;10.83;;;-0.20;99.90;-1.40;99766;;;;577221;246;24067;-81
2022/11/20 08:48:03;;;;;;;14.70;8.83;;;-0.30;99.90;-1.40;99763;;;;576556;246;24064;-82
2022/11/20 08:50:31;;;;;;;31.83;17.07;;;-0.30;99.90;-1.40;99755;;;;575943;246;24096;-82
2022/11/20 08:52:56;;;;;;;17.23;9.80;;;-0.40;99.90;-1.40;99746;;;;576545;246;24119;-80
2022/11/20 08:55:24;;;;;;;16.23;9.83;;;-0.40;99.90;-1.30;99753;;;;574953;246;24052;-81
2022/11/20 08:57:52;;;;;;;16.07;9.43;;;-0.30;99.90;-1.30;99748;;;;577413;246;24148;-80
2022/11/20 09:00:20;;;;;;;15.20;10.23;;;-0.30;99.90;-1.30;99745;;;;577408;246;24091;-82
2022/11/20 09:02:48;;;;;;;22.77;13.77;;;-0.30;99.90;-1.30;99747;;;;577413;246;24114;-82
2022/11/20 09:05:17;;;;;;;35.10;20.42;;;-0.20;99.90;-1.30;99748;;;;572201;246;35228;-80
2022/11/20 09:07:46;;;;;;;4.20;3.73;;;-0.30;99.90;-1.30;99742;;;;577166;246;24109;-82
2022/11/20 09:10:16;;;;;;;17.20;9.77;;;-0.30;99.90;-1.30;99749;;;;575030;246;25127;-80
2022/11/20 09:12:44;;;;;;;24.20;14.13;;;-0.30;99.90;-1.30;99745;;;;576963;244;25113;-82
2022/11/20 09:15:12;;;;;;;13.83;8.67;;;-0.20;99.90;-1.20;99743;;;;576811;246;25133;-81
2022/11/20 09:17:40;;;;;;;19.23;10.93;;;-0.30;99.90;-1.20;99737;;;;576838;246;24054;-81
2022/11/20 09:20:08;;;;;;;21.20;13.17;;;-0.20;99.90;-1.20;99740;;;;576415;246;24058;-81
2022/11/20 09:22:36;;;;;;;18.90;10.20;;;-0.20;99.90;-1.20;99732;;;;576356;246;25117;-80
2022/11/20 09:25:06;;;;;;;19.57;11.77;;;-0.20;99.90;-1.20;99728;;;;574137;246;24077;-82
2022/11/20 09:27:32;;;;;;;32.03;18.33;;;-0.20;99.90;-1.20;99734;;;;585162;239;24069;-80
2022/11/20 09:30:02;;;;;;;20.47;12.40;;;-0.20;99.90;-1.30;99723;;;;576197;246;24052;-78
2022/11/20 09:32:28;;;;;;;22.57;12.00;;;-0.30;99.90;-1.30;99720;;;;576008;246;24074;-79
2022/11/20 09:34:56;;;;;;;20.07;12.37;;;-0.30;99.90;-1.30;99722;;;;575953;246;24138;-80
2022/11/20 09:37:24;;;;;;;36.87;19.83;;;-0.30;99.90;-1.30;99715;;;;576315;246;24050;-79
2022/11/20 09:39:53;;;;;;;29.13;15.37;;;-0.30;99.90;-1.30;99715;;;;575995;246;24075;-79
2022/11/20 09:42:33;;;;;;;22.20;12.63;;;-0.40;99.90;-1.40;99715;;;;575925;246;24123;-79
2022/11/20 09:45:25;;;;;;;33.20;18.63;;;-0.40;99.90;-1.30;99716;;;;573715;246;24108;-80
2022/11/20 09:48:09;;;;;;;44.23;21.33;;;-0.40;99.90;-1.40;99714;;;;573785;246;24163;-82
2022/11/20 09:50:56;;;;;;;42.27;18.77;;;-0.40;99.90;-1.40;99702;;;;574195;246;25169;-81
2022/11/20 09:53:36;;;;;;;36.93;19.77;;;-0.40;99.90;-1.40;99713;;;;574735;241;24066;-81
2022/11/20 09:56:07;;;;;;;43.47;23.13;;;-0.40;99.90;-1.40;99716;;;;573951;246;24117;-79
2022/11/20 09:58:41;;;;;;;31.63;16.20;;;-0.40;99.90;-1.30;99712;;;;574556;246;24056;-80
2022/11/20 10:01:21;;;;;;;38.97;20.90;;;-0.40;99.90;-1.20;99707;;;;573682;244;24061;-81
2022/11/20 10:03:55;;;;;;;32.27;15.60;;;-0.30;99.90;-1.10;99710;;;;575600;246;24101;-81
2022/11/20 10:06:23;;;;;;;43.80;24.30;;;-0.20;99.90;-0.90;99704;;;;572271;245;35239;-83
2022/11/20 10:09:12;;;;;;;2.33;2.00;;;0.00;99.90;-0.80;99705;;;;575986;246;24052;-79
2022/11/20 10:11:57;;;;;;;21.97;11.77;;;0.10;99.90;-0.80;99699;;;;575452;246;24123;-81
2022/11/20 10:14:46;;;;;;;30.17;17.67;;;0.20;99.90;-0.80;99697;;;;572366;246;24078;-80
2022/11/20 10:17:50;;;;;;;27.90;16.00;;;0.30;99.90;-0.80;99697;;;;575066;246;24080;-82
2022/11/20 10:20:42;;;;;;;21.60;13.80;;;0.20;99.90;-0.80;99689;;;;574279;246;25102;-79
2022/11/20 10:23:33;;;;;;;36.13;20.63;;;0.20;99.90;-0.80;99694;;;;577109;246;24115;-79
2022/11/20 10:26:01;;;;;;;30.93;17.20;;;0.10;99.90;-0.90;99696;;;;576033;246;24130;-80
2022/11/20 10:28:59;;;;;;;45.13;25.93;;;0.10;99.90;-0.90;99691;;;;580017;245;46078;-79
2022/11/20 10:31:40;;;;;;;15.23;7.72;;;0.10;99.90;-0.90;99695;;;;571466;246;35369;-80
2022/11/20 10:34:08;;;;;;;10.10;6.00;;;0.10;99.90;-0.90;99687;;;;576048;246;24096;-80
2022/11/20 10:36:36;;;;;;;4.10;3.23;;;0.20;99.90;-0.80;99689;;;;573599;246;24058;-79
2022/11/20 10:39:15;;;;;;;31.53;17.37;;;0.20;99.90;-0.80;99686;;;;573979;246;24060;-81
2022/11/20 10:41:46;;;;;;;36.17;18.83;;;0.20;99.90;-0.80;99685;;;;573015;246;24070;-79
2022/11/20 10:44:13;;;;;;;29.07;16.23;;;0.20;99.90;-0.80;99691;;;;584544;246;24070;-80
2022/11/20 10:46:41;;;;;;;24.77;14.73;;;0.20;99.90;-0.80;99684;;;;576784;246;24073;-80
2022/11/20 10:49:15;;;;;;;27.87;15.30;;;0.20;99.90;-0.70;99688;;;;574146;246;24068;-80
2022/11/20 10:51:52;;;;;;;25.50;15.90;;;0.30;99.90;-0.60;99688;;;;576070;246;24080;-79
2022/11/20 10:54:32;;;;;;;35.27;18.70;;;0.30;99.90;-0.60;99681;;;;576966;246;24123;-79
2022/11/20 10:57:10;;;;;;;31.13;18.23;;;0.40;99.90;-0.50;99672;;;;575885;246;24105;-79
2022/11/20 10:59:52;;;;;;;36.00;20.30;;;0.50;99.90;-0.50;99671;;;;574431;243;24066;-81
2022/11/20 11:02:26;;;;;;;25.13;16.73;;;0.50;99.90;-0.40;99677;;;;576094;246;24057;-79
2022/11/20 11:04:54;;;;;;;54.30;26.03;;;0.70;99.90;-0.40;99682;;;;573768;246;24108;-77
2022/11/20 11:07:37;;;;;;;46.60;25.47;;;0.70;99.90;-0.40;99669;;;;576039;246;24066;-79
2022/11/20 11:10:16;;;;;;;34.93;22.77;;;0.60;99.90;-0.50;99664;;;;574142;246;24057;-79
2022/11/20 11:12:45;;;;;;;38.30;21.40;;;0.50;99.90;-0.60;99666;;;;576306;246;24166;-82
2022/11/20 11:15:12;;;;;;;26.40;15.13;;;0.50;99.90;-0.70;99671;;;;573521;246;24069;-79
2022/11/20 11:17:41;;;;;;;29.00;19.03;;;0.30;99.90;-0.70;99665;;;;584153;241;24092;-79
2022/11/20 11:20:24;;;;;;;23.63;14.73;;;0.30;99.90;-0.80;99671;;;;568749;250;24155;-78
2022/11/20 11:22:49;;;;;;;27.93;17.00;;;0.30;99.90;-0.80;99663;;;;576554;246;24117;-80
2022/11/20 11:25:33;;;;;;;32.83;19.20;;;0.20;99.90;-0.80;99667;;;;575844;246;24066;-80